createdAt,value
2018-09-08T00:02:13.952Z,89.14
2018-09-08T00:04:42.534Z,89.19
2018-09-08T00:07:16.230Z,88.63
2018-09-08T00:09:44.910Z,88.68
2018-09-08T00:12:13.479Z,88.40
2018-09-08T00:14:41.058Z,88.77
2018-09-08T00:17:14.930Z,88.10
2018-09-08T00:19:48.558Z,87.78
2018-09-08T00:22:22.307Z,88.34
2018-09-08T00:24:55.985Z,86.68
2018-09-08T00:27:31.682Z,87.12
2018-09-08T00:30:04.442Z,86.69
2018-09-08T00:32:33.006Z,85.75
2018-09-08T00:35:01.528Z,86.39
2018-09-08T00:37:30.110Z,86.42
2018-09-08T00:39:58.744Z,85.24
2018-09-08T00:42:27.886Z,85.14
2018-09-08T00:44:56.360Z,85.52
2018-09-08T00:47:24.878Z,85.18
2018-09-08T00:49:53.358Z,85.52
2018-09-08T00:52:21.957Z,84.04
2018-09-08T00:54:50.506Z,84.50
2018-09-08T00:57:19.006Z,85.12
2018-09-08T00:59:47.486Z,85.52
2018-09-08T01:02:16.045Z,85.30
2018-09-08T01:04:44.798Z,85.64
2018-09-08T01:07:18.457Z,83.93
2018-09-08T01:09:47.041Z,84.84
2018-09-08T01:12:15.594Z,85.54
2018-09-08T01:14:44.185Z,85.13
2018-09-08T01:17:12.856Z,85.39
2018-09-08T01:19:41.448Z,86.03
2018-09-08T01:22:10.045Z,86.27
2018-09-08T01:24:38.658Z,86.56
2018-09-08T01:27:07.211Z,86.95
2018-09-08T01:29:35.697Z,86.82
2018-09-08T01:32:04.294Z,87.30
2018-09-08T01:34:32.830Z,86.29
2018-09-08T01:37:01.321Z,86.53
2018-09-08T01:39:30.059Z,86.59
2018-09-08T01:41:58.829Z,85.72
2018-09-08T01:44:27.387Z,85.52
2018-09-08T01:46:56.053Z,85.94
2018-09-08T01:49:24.534Z,85.76
2018-09-08T01:51:53.160Z,86.21
2018-09-08T01:54:21.699Z,85.20
2018-09-08T01:56:50.194Z,84.78
2018-09-08T01:59:18.675Z,84.25
2018-09-08T02:01:47.258Z,85.16
2018-09-08T02:04:15.952Z,85.38
2018-09-08T02:06:44.535Z,85.83
2018-09-08T02:09:13.300Z,86.06
2018-09-08T02:11:41.884Z,86.09
2018-09-08T02:14:10.466Z,85.90
2018-09-08T02:16:38.948Z,85.69
2018-09-08T02:19:07.528Z,85.91
2018-09-08T02:21:36.411Z,85.83
2018-09-08T02:24:04.902Z,85.92
2018-09-08T02:26:33.389Z,85.98
2018-09-08T02:29:01.863Z,85.90
2018-09-08T02:31:30.689Z,86.01
2018-09-08T02:33:59.273Z,86.20
2018-09-08T02:36:28.133Z,86.35
2018-09-08T02:38:56.610Z,86.34
2018-09-08T02:41:25.086Z,86.58
2018-09-08T02:43:53.626Z,86.46
2018-09-08T02:46:22.181Z,86.47
2018-09-08T02:48:50.634Z,86.70
2018-09-08T02:51:17.980Z,86.90
2018-09-08T02:53:45.226Z,86.70
2018-09-08T02:56:12.490Z,86.59
2018-09-08T02:58:39.817Z,86.77
2018-09-08T03:01:07.062Z,86.64
2018-09-08T03:03:34.387Z,87.00
2018-09-08T03:06:01.679Z,87.18
2018-09-08T03:08:28.938Z,86.84
2018-09-08T03:10:56.235Z,86.79
2018-09-08T03:13:23.498Z,86.73
2018-09-08T03:15:51.046Z,86.78
2018-09-08T03:18:18.374Z,86.59
2018-09-08T03:20:45.630Z,86.99
2018-09-08T03:23:12.887Z,87.02
2018-09-08T03:25:40.134Z,86.91
2018-09-08T03:28:07.471Z,87.28
2018-09-08T03:30:34.710Z,87.23
2018-09-08T03:33:01.993Z,87.57
2018-09-08T03:35:29.250Z,87.65
2018-09-08T03:37:56.494Z,88.01
2018-09-08T03:40:23.738Z,88.09
2018-09-08T03:42:51.000Z,88.14
2018-09-08T03:45:18.255Z,87.81
2018-09-08T03:47:45.502Z,87.66
2018-09-08T03:50:12.993Z,87.57
2018-09-08T03:52:40.333Z,87.55
2018-09-08T03:55:07.648Z,87.56
2018-09-08T03:57:35.270Z,87.91
2018-09-08T04:00:02.606Z,87.83
2018-09-08T04:02:29.857Z,88.06
2018-09-08T04:04:58.450Z,88.63
2018-09-08T04:07:26.980Z,88.42
2018-09-08T04:09:55.475Z,88.06
2018-09-08T04:12:23.963Z,87.63
2018-09-08T04:14:52.447Z,87.43
2018-09-08T04:17:21.026Z,87.50
2018-09-08T04:19:49.606Z,87.49
2018-09-08T04:22:22.306Z,87.30
2018-09-08T04:24:50.869Z,87.12
2018-09-08T04:27:19.338Z,87.53
2018-09-08T04:29:47.850Z,87.53
2018-09-08T04:32:16.406Z,87.70
2018-09-08T04:34:44.872Z,88.26
2018-09-08T04:37:13.361Z,88.04
2018-09-08T04:39:41.946Z,88.75
2018-09-08T04:42:10.558Z,88.71
2018-09-08T04:44:39.126Z,88.67
2018-09-08T04:47:07.614Z,88.47
2018-09-08T04:49:36.983Z,89.06
2018-09-08T04:52:05.798Z,88.61
2018-09-08T04:54:34.978Z,88.72
2018-09-08T04:57:03.480Z,88.60
2018-09-08T04:59:32.046Z,88.39
2018-09-08T05:02:00.618Z,88.17
2018-09-08T05:04:29.097Z,88.02
2018-09-08T05:06:57.597Z,88.64
2018-09-08T05:09:26.186Z,88.38
2018-09-08T05:11:54.790Z,88.89
2018-09-08T05:14:23.302Z,88.64
2018-09-08T05:16:51.810Z,88.50
2018-09-08T05:19:35.086Z,88.85
2018-09-08T05:22:03.626Z,89.17
2018-09-08T05:24:32.403Z,89.85
2018-09-08T05:27:00.906Z,89.42
2018-09-08T05:29:29.374Z,89.91
2018-09-08T05:31:58.782Z,90.67
2018-09-08T05:34:27.614Z,90.43
2018-09-08T05:36:56.237Z,90.67
2018-09-08T05:39:24.712Z,90.21
2018-09-08T05:41:53.210Z,90.07
2018-09-08T05:44:21.790Z,89.65
2018-09-08T05:46:50.278Z,90.07
2018-09-08T05:49:18.947Z,89.67
2018-09-08T05:51:47.545Z,90.01
2018-09-08T05:54:16.216Z,90.11
2018-09-08T05:56:44.738Z,90.04
2018-09-08T05:59:13.380Z,90.18
2018-09-08T06:01:41.866Z,90.11
2018-09-08T06:04:10.461Z,90.49
2018-09-08T06:06:39.392Z,89.86
2018-09-08T06:09:09.760Z,89.68
2018-09-08T06:11:38.493Z,89.54
2018-09-08T06:14:07.050Z,89.70
2018-09-08T06:16:35.816Z,89.79
2018-09-08T06:19:04.400Z,89.86
2018-09-08T06:21:33.130Z,90.11
2018-09-08T06:24:01.679Z,90.29
2018-09-08T06:26:30.352Z,90.44
2018-09-08T06:28:58.838Z,90.08
2018-09-08T06:31:27.357Z,90.35
2018-09-08T06:33:56.048Z,90.42
2018-09-08T06:36:24.494Z,90.20
2018-09-08T06:38:52.986Z,89.80
2018-09-08T06:41:21.570Z,89.79
2018-09-08T06:43:50.162Z,90.18
2018-09-08T06:46:18.735Z,89.99
2018-09-08T06:48:47.317Z,89.26
2018-09-08T06:51:15.990Z,88.49
2018-09-08T06:53:44.534Z,87.66
2018-09-08T06:56:13.051Z,88.40
2018-09-08T06:58:41.731Z,88.31
2018-09-08T07:01:10.254Z,87.72
2018-09-08T07:03:38.826Z,87.56
2018-09-08T07:06:07.392Z,87.56
2018-09-08T07:08:35.957Z,86.95
2018-09-08T07:11:04.518Z,86.69
2018-09-08T07:13:33.017Z,86.83
2018-09-08T07:16:01.559Z,87.14
2018-09-08T07:18:30.126Z,87.08
2018-09-08T07:20:58.686Z,86.31
2018-09-08T07:23:27.170Z,86.43
2018-09-08T07:25:55.742Z,85.76
2018-09-08T07:28:24.411Z,85.99
2018-09-08T07:30:52.903Z,85.36
2018-09-08T07:33:21.702Z,85.97
2018-09-08T07:35:50.206Z,85.52
2018-09-08T07:38:18.758Z,85.18
2018-09-08T07:40:47.432Z,84.42
2018-09-08T07:43:16.014Z,82.14
2018-09-08T07:45:44.498Z,83.06
2018-09-08T07:48:13.076Z,81.67
2018-09-08T07:50:41.698Z,80.11
2018-09-08T07:53:10.238Z,80.69
2018-09-08T07:55:39.074Z,81.14
2018-09-08T07:58:07.643Z,78.46
2018-09-08T08:00:36.228Z,78.99
2018-09-08T08:03:05.098Z,80.39
2018-09-08T08:05:33.674Z,79.11
2018-09-08T08:08:02.352Z,79.46
2018-09-08T08:10:30.831Z,78.21
2018-09-08T08:12:59.316Z,76.36
2018-09-08T08:15:27.838Z,77.99
2018-09-08T08:17:56.479Z,75.24
2018-09-08T08:20:24.971Z,76.13
2018-09-08T08:22:53.578Z,77.34
2018-09-08T08:25:22.143Z,75.08
2018-09-08T08:27:51.015Z,75.04
2018-09-08T08:30:19.519Z,77.00
2018-09-08T08:32:48.082Z,79.42
2018-09-08T08:35:16.718Z,80.91
2018-09-08T08:37:45.262Z,81.61
2018-09-08T08:40:13.930Z,80.81
2018-09-08T08:42:42.514Z,81.53
2018-09-08T08:45:11.095Z,81.61
2018-09-08T08:47:39.584Z,83.09
2018-09-08T08:50:19.477Z,83.08
2018-09-08T08:52:59.218Z,83.08
2018-09-08T08:55:28.058Z,83.59
2018-09-08T08:57:56.579Z,82.25
2018-09-08T09:00:25.140Z,82.73
2018-09-08T09:02:54.010Z,81.30
2018-09-08T09:05:22.593Z,80.45
2018-09-08T09:07:51.214Z,80.02
2018-09-08T09:10:20.090Z,79.49
2018-09-08T09:12:48.621Z,77.93
2018-09-08T09:15:17.480Z,79.74
2018-09-08T09:17:46.062Z,79.65
2018-09-08T09:21:25.467Z,80.30
2018-09-08T09:25:08.202Z,77.81
2018-09-08T09:27:39.431Z,78.29
2018-09-08T09:30:09.002Z,77.25
2018-09-08T09:32:37.619Z,75.80
2018-09-08T09:35:07.551Z,74.12
2018-09-08T09:37:36.218Z,74.25
2018-09-08T09:40:05.258Z,71.61
2018-09-08T09:42:34.356Z,74.27
2018-09-08T09:45:02.914Z,72.78
2018-09-08T09:47:31.678Z,73.16
2018-09-08T09:50:00.162Z,73.09
2018-09-08T09:52:28.842Z,71.35
2018-09-08T09:54:57.325Z,68.29
2018-09-08T09:57:25.918Z,70.56
2018-09-08T09:59:54.530Z,67.89
2018-09-08T10:02:40.282Z,69.99
2018-09-08T10:05:12.394Z,69.54
2018-09-08T10:07:41.024Z,69.80
2018-09-08T10:10:11.790Z,71.08
2018-09-08T10:12:40.751Z,70.57
2018-09-08T10:15:09.786Z,70.39
2018-09-08T10:17:39.186Z,69.63
2018-09-08T10:20:09.410Z,68.63
2018-09-08T10:22:38.050Z,67.97
2018-09-08T10:25:07.998Z,69.69
2018-09-08T10:27:36.602Z,67.63
2018-09-08T10:30:05.234Z,68.97
2018-09-08T10:32:33.834Z,68.94
2018-09-08T10:35:02.603Z,70.02
2018-09-08T10:37:31.186Z,69.75
2018-09-08T10:39:59.715Z,69.22
2018-09-08T10:42:28.298Z,68.03
2018-09-08T10:44:57.189Z,69.65
2018-09-08T10:47:25.806Z,68.30
2018-09-08T10:49:54.554Z,69.57
2018-09-08T10:52:27.905Z,68.52
2018-09-08T10:54:56.433Z,67.28
2018-09-08T10:57:25.078Z,65.61
2018-09-08T10:59:53.655Z,66.59
2018-09-08T11:02:23.283Z,66.45
2018-09-08T11:04:51.394Z,69.32
2018-09-08T11:07:20.118Z,68.92
2018-09-08T11:09:48.686Z,70.21
2018-09-08T11:12:17.934Z,70.56
2018-09-08T11:14:46.414Z,71.57
2018-09-08T11:17:15.067Z,73.83
2018-09-08T11:19:43.649Z,75.82
2018-09-08T11:22:12.378Z,77.01
2018-09-08T11:24:40.858Z,77.54
2018-09-08T11:27:09.334Z,77.82
2018-09-08T11:29:38.589Z,77.61
2018-09-08T11:32:07.355Z,77.14
2018-09-08T11:34:36.172Z,78.53
2018-09-08T11:37:04.998Z,77.33
2018-09-08T11:39:33.745Z,76.95
2018-09-08T11:42:02.234Z,77.07
2018-09-08T11:44:30.830Z,77.63
2018-09-08T11:46:59.407Z,77.66
2018-09-08T11:49:28.047Z,76.09
2018-09-08T11:51:56.605Z,76.80
2018-09-08T11:54:25.401Z,77.53
2018-09-08T11:56:54.186Z,77.15
2018-09-08T11:59:22.697Z,77.80
2018-09-08T12:01:51.206Z,78.10
2018-09-08T12:04:19.806Z,79.34
2018-09-08T12:06:48.383Z,80.08
2018-09-08T12:09:16.872Z,81.28
2018-09-08T12:11:45.446Z,81.36
2018-09-08T12:14:14.123Z,81.65
2018-09-08T12:16:42.694Z,82.23
2018-09-08T12:19:11.229Z,82.38
2018-09-08T12:21:39.756Z,82.91
2018-09-08T12:24:08.226Z,83.80
2018-09-08T12:26:36.802Z,83.63
2018-09-08T12:29:05.318Z,84.05
2018-09-08T12:31:33.884Z,84.50
2018-09-08T12:34:02.378Z,84.68
2018-09-08T12:36:30.872Z,85.00
2018-09-08T12:38:59.402Z,84.79
2018-09-08T12:41:27.898Z,84.99
2018-09-08T12:43:56.521Z,84.98
2018-09-08T12:46:25.175Z,85.93
2018-09-08T12:48:53.779Z,86.33
2018-09-08T12:51:22.258Z,86.43
2018-09-08T12:53:50.834Z,86.46
2018-09-08T12:56:19.435Z,86.49
2018-09-08T12:58:48.092Z,86.22
2018-09-08T13:01:16.610Z,87.12
2018-09-08T13:03:45.270Z,87.27
2018-09-08T13:06:13.874Z,87.33
2018-09-08T13:08:42.440Z,88.19
2018-09-08T13:11:11.059Z,87.49
2018-09-08T13:13:39.688Z,87.80
2018-09-08T13:16:08.185Z,87.68
2018-09-08T13:18:36.752Z,87.35
2018-09-08T13:21:05.358Z,87.77
2018-09-08T13:23:33.922Z,87.74
2018-09-08T13:26:02.514Z,87.72
2018-09-08T13:28:31.227Z,87.89
2018-09-08T13:30:59.873Z,88.24
2018-09-08T13:33:28.399Z,88.56
2018-09-08T13:35:56.981Z,88.24
2018-09-08T13:38:25.456Z,87.88
2018-09-08T13:40:54.204Z,88.73
2018-09-08T13:43:22.798Z,88.02
2018-09-08T13:45:51.776Z,85.76
2018-09-08T13:48:20.360Z,84.90
2018-09-08T13:50:48.894Z,82.61
2018-09-08T13:53:17.439Z,82.13
2018-09-08T13:55:46.010Z,80.91
2018-09-08T13:58:15.018Z,81.06
2018-09-08T14:00:43.533Z,81.02
2018-09-08T14:03:12.187Z,80.55
2018-09-08T14:05:40.753Z,79.73
2018-09-08T14:08:12.874Z,79.03
2018-09-08T14:10:41.426Z,78.77
2018-09-08T14:13:10.029Z,78.95
2018-09-08T14:15:38.710Z,79.09
2018-09-08T14:18:07.257Z,78.97
2018-09-08T14:20:35.755Z,79.09
2018-09-08T14:23:04.315Z,78.13
2018-09-08T14:25:32.893Z,78.54
2018-09-08T14:28:01.402Z,78.49
2018-09-08T14:30:29.962Z,78.09
2018-09-08T14:32:58.890Z,77.67
2018-09-08T14:35:27.534Z,78.48
2018-09-08T14:37:56.359Z,77.17
2018-09-08T14:40:24.950Z,77.77
2018-09-08T14:42:53.458Z,76.99
2018-09-08T14:45:22.024Z,76.45
2018-09-08T14:47:50.650Z,77.19
2018-09-08T14:50:19.234Z,76.69
2018-09-08T14:52:47.817Z,76.98
2018-09-08T14:55:16.399Z,76.64
2018-09-08T14:57:45.122Z,76.56
2018-09-08T15:00:14.091Z,77.30
2018-09-08T15:02:42.672Z,77.08
2018-09-08T15:05:11.243Z,76.23
2018-09-08T15:07:39.906Z,76.28
2018-09-08T15:10:08.475Z,76.08
2018-09-08T15:12:36.990Z,75.22
2018-09-08T15:15:06.094Z,75.76
2018-09-08T15:17:34.668Z,76.33
2018-09-08T15:20:03.194Z,75.74
2018-09-08T15:22:31.733Z,75.49
2018-09-08T15:25:00.216Z,74.47
2018-09-08T15:27:29.554Z,73.56
2018-09-08T15:29:58.358Z,73.66
2018-09-08T15:32:26.927Z,74.38
2018-09-08T15:34:55.478Z,74.65
2018-09-08T15:37:23.962Z,73.51
2018-09-08T15:39:52.799Z,73.11
2018-09-08T15:42:21.674Z,73.14
2018-09-08T15:44:50.218Z,72.89
2018-09-08T15:47:18.735Z,72.24
2018-09-08T15:49:47.306Z,72.25
2018-09-08T15:52:15.790Z,72.33
2018-09-08T15:54:44.258Z,72.82
2018-09-08T15:57:12.930Z,73.42
2018-09-08T15:59:41.518Z,73.25
2018-09-08T16:02:10.110Z,72.47
2018-09-08T16:04:38.705Z,73.21
2018-09-08T16:07:07.582Z,73.17
2018-09-08T16:09:36.403Z,72.77
2018-09-08T16:12:04.940Z,72.60
2018-09-08T16:14:33.516Z,72.37
2018-09-08T16:17:02.006Z,72.88
2018-09-08T16:19:30.477Z,73.40
2018-09-08T16:21:59.106Z,74.02
2018-09-08T16:24:27.598Z,73.95
2018-09-08T16:26:56.122Z,73.84
2018-09-08T16:29:24.622Z,74.14
2018-09-08T16:31:53.433Z,73.94
2018-09-08T16:34:21.969Z,73.75
2018-09-08T16:36:50.622Z,73.88
2018-09-08T16:39:19.146Z,74.93
2018-09-08T16:41:47.770Z,75.39
2018-09-08T16:44:16.477Z,75.69
2018-09-08T16:46:44.906Z,75.47
2018-09-08T16:49:13.479Z,75.87
2018-09-08T16:51:42.069Z,76.28
2018-09-08T16:54:10.662Z,75.88
2018-09-08T16:56:39.319Z,76.13
2018-09-08T16:59:07.894Z,76.60
2018-09-08T17:01:36.399Z,77.17
2018-09-08T17:04:04.962Z,77.71
2018-09-08T17:06:33.446Z,77.64
2018-09-08T17:09:01.942Z,78.24
2018-09-08T17:11:30.414Z,78.21
2018-09-08T17:13:59.002Z,78.73
2018-09-08T17:16:28.307Z,78.38
2018-09-08T17:18:56.774Z,78.73
2018-09-08T17:21:25.326Z,79.75
2018-09-08T17:23:53.870Z,79.19
2018-09-08T17:26:22.423Z,79.67
2018-09-08T17:28:51.006Z,79.16
2018-09-08T17:31:19.522Z,79.65
2018-09-08T17:33:48.202Z,79.08
2018-09-08T17:36:16.677Z,78.89
2018-09-08T17:38:45.153Z,77.41
2018-09-08T17:41:13.716Z,76.92
2018-09-08T17:43:42.212Z,77.07
2018-09-08T17:46:10.685Z,76.85
2018-09-08T17:48:39.267Z,76.24
2018-09-08T17:51:08.034Z,75.64
2018-09-08T17:53:36.618Z,76.31
2018-09-08T17:56:05.146Z,75.92
2018-09-08T17:58:33.682Z,75.97
2018-09-08T18:01:02.231Z,75.94
2018-09-08T18:03:30.786Z,76.68
2018-09-08T18:05:59.366Z,76.81
2018-09-08T18:08:28.062Z,77.17
2018-09-08T18:10:56.803Z,77.15
2018-09-08T18:13:26.126Z,78.24
2018-09-08T18:15:54.718Z,78.45
2018-09-08T18:18:23.522Z,79.45
2018-09-08T18:20:52.516Z,79.30
2018-09-08T18:23:21.297Z,80.63
2018-09-08T18:25:49.858Z,80.96
2018-09-08T18:28:18.430Z,80.90
2018-09-08T18:30:47.026Z,81.88
2018-09-08T18:33:15.509Z,81.49
2018-09-08T18:35:44.078Z,81.56
2018-09-08T18:38:12.654Z,81.23
2018-09-08T18:40:41.272Z,80.96
2018-09-08T18:43:09.811Z,81.91
2018-09-08T18:45:38.306Z,80.99
2018-09-08T18:48:06.903Z,80.72
2018-09-08T18:50:35.894Z,80.01
2018-09-08T18:53:05.066Z,78.28
2018-09-08T18:55:33.852Z,78.10
2018-09-08T18:58:02.538Z,78.32
2018-09-08T19:00:31.482Z,79.13
2018-09-08T19:03:00.566Z,79.61
2018-09-08T19:05:29.822Z,81.21
2018-09-08T19:07:58.711Z,81.25
2018-09-08T19:10:27.382Z,81.47
2018-09-08T19:12:55.876Z,81.12
2018-09-08T19:15:24.486Z,81.64
2018-09-08T19:17:53.058Z,82.29
2018-09-08T19:20:26.901Z,82.13
2018-09-08T19:22:55.483Z,82.04
2018-09-08T19:25:24.033Z,81.99
2018-09-08T19:27:52.873Z,81.40
2018-09-08T19:30:21.535Z,81.28
2018-09-08T19:32:50.071Z,80.27
2018-09-08T19:35:23.876Z,80.50
2018-09-08T19:37:52.369Z,80.42
2018-09-08T19:40:26.399Z,80.97
2018-09-08T19:42:55.050Z,81.12
2018-09-08T19:45:23.547Z,81.81
2018-09-08T19:47:57.214Z,82.42
2018-09-08T19:50:25.818Z,82.06
2018-09-08T19:52:59.726Z,82.63
2018-09-08T19:55:28.410Z,82.97
2018-09-08T19:58:02.317Z,83.02
2018-09-08T20:00:30.905Z,83.70
2018-09-08T20:02:59.638Z,84.17
2018-09-08T20:05:28.170Z,84.38
2018-09-08T20:07:57.109Z,84.49
2018-09-08T20:10:26.054Z,84.60
2018-09-08T20:12:54.703Z,86.26
2018-09-08T20:15:23.794Z,86.92
2018-09-08T20:17:52.311Z,83.76
2018-09-08T20:20:20.809Z,82.14
2018-09-08T20:22:49.626Z,82.74
2018-09-08T20:25:18.467Z,83.18
2018-09-08T20:27:46.962Z,84.13
2018-09-08T20:30:16.115Z,85.38
2018-09-08T20:32:44.651Z,86.11
2018-09-08T20:35:13.162Z,87.02
2018-09-08T20:37:42.523Z,88.63
2018-09-08T20:40:11.111Z,88.09
2018-09-08T20:42:39.598Z,87.57
2018-09-08T20:45:08.172Z,87.94
2018-09-08T20:47:36.766Z,87.19
2018-09-08T20:50:05.337Z,88.47
2018-09-08T20:52:33.905Z,87.82
2018-09-08T20:55:02.413Z,87.32
2018-09-08T20:57:30.986Z,86.98
2018-09-08T21:00:00.473Z,86.84
2018-09-08T21:02:29.546Z,86.81
2018-09-08T21:04:58.046Z,86.80
2018-09-08T21:07:26.631Z,86.80
2018-09-08T21:09:55.251Z,86.50
2018-09-08T21:12:23.797Z,86.49
2018-09-08T21:14:52.330Z,86.20
2018-09-08T21:17:20.963Z,86.14
2018-09-08T21:19:49.541Z,85.79
2018-09-08T21:22:18.606Z,85.04
2018-09-08T21:24:47.245Z,85.41
2018-09-08T21:27:15.717Z,85.38
2018-09-08T21:29:44.388Z,85.38
2018-09-08T21:32:12.971Z,85.25
2018-09-08T21:34:41.584Z,85.02
2018-09-08T21:37:10.154Z,85.18
2018-09-08T21:39:38.741Z,85.08
2018-09-08T21:42:07.243Z,85.22
2018-09-08T21:44:35.806Z,85.23
2018-09-08T21:47:05.909Z,86.07
2018-09-08T21:49:33.054Z,85.85
2018-09-08T21:52:01.570Z,85.41
2018-09-08T21:54:30.138Z,85.37
2018-09-08T21:56:58.724Z,85.40
2018-09-08T21:59:27.307Z,85.42
2018-09-08T22:01:55.985Z,85.38
2018-09-08T22:04:24.566Z,85.37
2018-09-08T22:06:53.154Z,85.60
2018-09-08T22:09:21.634Z,86.03
2018-09-08T22:11:50.206Z,86.04
2018-09-08T22:14:18.907Z,85.91
2018-09-08T22:16:47.565Z,85.89
2018-09-08T22:19:16.078Z,85.86
2018-09-08T22:21:44.646Z,85.88
2018-09-08T22:24:13.142Z,86.05
2018-09-08T22:26:41.714Z,85.68
2018-09-08T22:29:10.390Z,86.13
2018-09-08T22:31:38.892Z,86.11
2018-09-08T22:34:07.503Z,85.56
2018-09-08T22:36:36.242Z,85.72
2018-09-08T22:39:06.244Z,86.04
2018-09-08T22:41:34.869Z,86.22
2018-09-08T22:44:03.426Z,86.51
2018-09-08T22:46:31.909Z,86.41
2018-09-08T22:49:00.577Z,86.37
2018-09-08T22:51:29.116Z,86.88
2018-09-08T22:53:57.674Z,86.44
2018-09-08T22:56:26.268Z,86.72
2018-09-08T22:58:54.805Z,86.66
2018-09-08T23:01:23.490Z,86.67
2018-09-08T23:03:51.986Z,86.74
2018-09-08T23:06:20.590Z,86.82
2018-09-08T23:08:49.154Z,86.91
2018-09-08T23:11:17.830Z,86.78
2018-09-08T23:13:46.432Z,86.78
2018-09-08T23:16:14.918Z,86.75
2018-09-08T23:18:43.572Z,86.92
2018-09-08T23:21:12.153Z,86.90
2018-09-08T23:23:40.654Z,87.63
2018-09-08T23:26:09.215Z,87.53
2018-09-08T23:28:37.850Z,87.54
2018-09-08T23:31:06.414Z,87.11
2018-09-08T23:33:34.920Z,87.29
2018-09-08T23:36:03.451Z,87.33
2018-09-08T23:38:32.032Z,87.41
2018-09-08T23:41:00.713Z,87.05
2018-09-08T23:43:29.230Z,86.90
2018-09-08T23:45:57.798Z,86.97
2018-09-08T23:48:26.273Z,87.29
2018-09-08T23:50:54.766Z,87.58
2018-09-08T23:53:23.369Z,87.43
2018-09-08T23:55:51.894Z,87.62
2018-09-08T23:58:20.426Z,87.78
